createdAt,value
2022-10-16T00:02:34.669Z,98355.16
2022-10-16T00:05:44.793Z,98357.61
2022-10-16T00:08:48.530Z,98358.33
2022-10-16T00:11:51.542Z,98355.56
2022-10-16T00:14:54.476Z,98354.07
2022-10-16T00:17:57.360Z,98353.04
2022-10-16T00:21:21.434Z,98353.83
2022-10-16T00:24:24.302Z,98352.57
2022-10-16T00:27:27.167Z,98354.30
2022-10-16T00:30:30.181Z,98356.05
2022-10-16T00:33:33.633Z,98351.70
2022-10-16T00:36:36.480Z,98351.16
2022-10-16T00:39:39.839Z,98352.73
2022-10-16T00:42:42.636Z,98358.56
2022-10-16T00:45:45.864Z,98360.95
2022-10-16T00:48:53.789Z,98363.00
2022-10-16T00:51:56.794Z,98361.89
2022-10-16T00:55:00.975Z,98365.20
2022-10-16T00:58:03.808Z,98362.92
2022-10-16T01:01:06.869Z,98362.93
2022-10-16T01:04:09.874Z,98365.70
2022-10-16T01:07:25.806Z,98364.30
2022-10-16T01:10:39.353Z,98359.33
2022-10-16T01:13:47.045Z,98357.70
2022-10-16T01:17:00.770Z,98359.66
2022-10-16T01:20:19.273Z,98357.31
2022-10-16T01:23:25.088Z,98362.22
2022-10-16T01:27:04.923Z,98359.30
2022-10-16T01:30:31.784Z,98356.17
2022-10-16T01:33:45.725Z,98356.81
2022-10-16T01:36:54.376Z,98356.66
2022-10-16T01:40:01.381Z,98357.94
2022-10-16T01:43:09.489Z,98359.36
2022-10-16T01:46:17.021Z,98358.83
2022-10-16T01:49:23.151Z,98362.23
2022-10-16T01:52:29.361Z,98362.80
2022-10-16T01:55:36.823Z,98361.61
2022-10-16T01:58:47.357Z,98369.75
2022-10-16T02:01:53.848Z,98371.34
2022-10-16T02:05:04.365Z,98376.73
2022-10-16T02:08:07.487Z,98376.64
2022-10-16T02:11:10.524Z,98379.26
2022-10-16T02:14:13.325Z,98382.26
2022-10-16T02:17:18.472Z,98387.95
2022-10-16T02:20:26.254Z,98385.83
2022-10-16T02:23:47.160Z,98385.43
2022-10-16T02:26:52.748Z,98382.20
2022-10-16T02:30:12.716Z,98385.77
2022-10-16T02:33:17.502Z,98378.34
2022-10-16T02:36:20.633Z,98379.48
2022-10-16T02:39:23.545Z,98381.68
2022-10-16T02:42:37.381Z,98377.73
2022-10-16T02:45:40.605Z,98376.48
2022-10-16T02:48:43.458Z,98379.71
2022-10-16T02:51:46.224Z,98385.40
2022-10-16T02:54:49.047Z,98390.47
2022-10-16T02:57:51.886Z,98394.66
2022-10-16T03:00:56.289Z,98392.30
2022-10-16T03:03:59.216Z,98397.84
2022-10-16T03:07:02.061Z,98402.17
2022-10-16T03:10:05.412Z,98401.23
2022-10-16T03:13:08.225Z,98402.98
2022-10-16T03:16:11.222Z,98406.07
2022-10-16T03:19:14.098Z,98404.58
2022-10-16T03:22:16.908Z,98407.18
2022-10-16T03:25:19.814Z,98406.77
2022-10-16T03:28:22.683Z,98408.82
2022-10-16T03:31:25.470Z,98414.68
2022-10-16T03:34:28.964Z,98414.68
2022-10-16T03:37:31.800Z,98419.59
2022-10-16T03:40:34.645Z,98426.31
2022-10-16T03:43:37.476Z,98427.10
2022-10-16T03:46:40.523Z,98427.27
2022-10-16T03:49:43.377Z,98429.49
2022-10-16T03:52:46.689Z,98422.63
2022-10-16T03:55:49.541Z,98420.81
2022-10-16T03:58:52.658Z,98417.65
2022-10-16T04:01:55.817Z,98422.17
2022-10-16T04:04:58.593Z,98424.15
2022-10-16T04:08:01.447Z,98425.48
2022-10-16T04:11:04.588Z,98430.39
2022-10-16T04:14:07.438Z,98432.52
2022-10-16T04:17:10.241Z,98431.95
2022-10-16T04:20:13.082Z,98435.73
2022-10-16T04:23:15.887Z,98437.24
2022-10-16T04:26:18.889Z,98431.61
2022-10-16T04:29:21.728Z,98434.23
2022-10-16T04:32:24.584Z,98429.30
2022-10-16T04:35:27.350Z,98425.59
2022-10-16T04:38:30.977Z,98428.06
2022-10-16T04:41:33.808Z,98427.19
2022-10-16T04:44:36.593Z,98433.34
2022-10-16T04:47:39.375Z,98439.29
2022-10-16T04:50:42.636Z,98442.46
2022-10-16T04:53:45.717Z,98440.91
2022-10-16T04:56:48.964Z,98446.93
2022-10-16T04:59:51.897Z,98446.59
2022-10-16T05:02:54.789Z,98449.77
2022-10-16T05:05:57.758Z,98449.94
2022-10-16T05:09:00.766Z,98451.63
2022-10-16T05:12:04.570Z,98456.85
2022-10-16T05:15:07.947Z,98464.37
2022-10-16T05:18:10.754Z,98463.58
2022-10-16T05:21:13.575Z,98474.41
2022-10-16T05:24:17.098Z,98477.24
2022-10-16T05:27:20.180Z,98474.46
2022-10-16T05:30:23.401Z,98482.27
2022-10-16T05:33:27.091Z,98479.02
2022-10-16T05:36:30.088Z,98477.65
2022-10-16T05:39:32.968Z,98480.48
2022-10-16T05:42:35.772Z,98480.09
2022-10-16T05:45:38.652Z,98484.41
2022-10-16T05:48:41.450Z,98490.79
2022-10-16T05:51:44.249Z,98497.80
2022-10-16T05:54:47.107Z,98507.98
2022-10-16T05:57:49.970Z,98510.41
2022-10-16T06:01:02.088Z,98508.03
2022-10-16T06:04:05.355Z,98509.20
2022-10-16T06:07:08.246Z,98514.39
2022-10-16T06:10:11.077Z,98519.42
2022-10-16T06:13:14.829Z,98521.62
2022-10-16T06:16:18.340Z,98527.92
2022-10-16T06:19:21.443Z,98532.48
2022-10-16T06:22:24.182Z,98533.00
2022-10-16T06:25:27.028Z,98535.73
2022-10-16T06:28:29.850Z,98538.14
2022-10-16T06:31:34.475Z,98543.00
2022-10-16T06:34:38.509Z,98542.90
2022-10-16T06:37:43.616Z,98543.26
2022-10-16T06:40:46.719Z,98547.79
2022-10-16T06:43:50.066Z,98547.14
2022-10-16T06:46:53.831Z,98550.56
2022-10-16T06:49:56.803Z,98557.48
2022-10-16T06:52:59.582Z,98558.16
2022-10-16T06:56:17.873Z,98556.16
2022-10-16T06:59:21.173Z,98552.02
2022-10-16T07:02:24.333Z,98556.84
2022-10-16T07:05:27.449Z,98549.00
2022-10-16T07:08:41.275Z,98555.77
2022-10-16T07:11:44.562Z,98561.73
2022-10-16T07:14:47.432Z,98565.50
2022-10-16T07:17:51.137Z,98568.17
2022-10-16T07:20:54.387Z,98573.98
2022-10-16T07:24:00.197Z,98570.63
2022-10-16T07:27:03.107Z,98567.55
2022-10-16T07:30:09.128Z,98571.45
2022-10-16T07:33:12.273Z,98573.40
2022-10-16T07:36:19.110Z,98571.86
2022-10-16T07:39:21.911Z,98577.82
2022-10-16T07:42:24.996Z,98582.81
2022-10-16T07:45:27.944Z,98580.83
2022-10-16T07:48:33.344Z,98584.30
2022-10-16T07:51:36.249Z,98590.20
2022-10-16T07:54:39.170Z,98590.80
2022-10-16T07:57:42.006Z,98590.41
2022-10-16T08:00:44.925Z,98590.34
2022-10-16T08:03:50.893Z,98591.06
2022-10-16T08:06:55.351Z,98595.33
2022-10-16T08:09:59.735Z,98599.02
2022-10-16T08:13:02.667Z,98600.73
2022-10-16T08:16:09.449Z,98601.25
2022-10-16T08:19:12.265Z,98598.84
2022-10-16T08:22:15.724Z,98601.43
2022-10-16T08:25:18.663Z,98607.13
2022-10-16T08:28:21.891Z,98616.54
2022-10-16T08:31:27.333Z,98616.64
2022-10-16T08:34:30.652Z,98617.05
2022-10-16T08:37:34.058Z,98615.80
2022-10-16T08:40:38.257Z,98620.64
2022-10-16T08:44:02.881Z,98615.40
2022-10-16T08:47:20.977Z,98623.39
2022-10-16T08:50:28.958Z,98626.39
2022-10-16T08:53:37.113Z,98628.50
2022-10-16T08:56:40.087Z,98631.50
2022-10-16T08:59:43.107Z,98632.14
2022-10-16T09:03:11.916Z,98626.22
2022-10-16T09:06:32.055Z,98627.64
2022-10-16T09:09:53.557Z,98627.89
2022-10-16T09:13:17.236Z,98628.31
2022-10-16T09:16:36.914Z,98628.75
2022-10-16T09:19:49.311Z,98629.46
2022-10-16T09:23:14.720Z,98631.48
2022-10-16T09:26:20.243Z,98632.61
2022-10-16T09:29:26.319Z,98641.23
2022-10-16T09:32:29.923Z,98639.55
2022-10-16T09:35:45.603Z,98642.78
2022-10-16T09:38:48.606Z,98642.60
2022-10-16T09:41:52.288Z,98644.23
2022-10-16T09:44:55.367Z,98650.14
2022-10-16T09:47:58.358Z,98644.72
2022-10-16T09:51:04.802Z,98642.64
2022-10-16T09:54:10.659Z,98652.19
2022-10-16T09:57:14.462Z,98655.36
2022-10-16T10:00:18.985Z,98655.27
2022-10-16T10:03:37.317Z,98657.34
2022-10-16T10:06:56.315Z,98654.61
2022-10-16T10:09:59.217Z,98656.79
2022-10-16T10:13:02.308Z,98654.05
2022-10-16T10:16:05.382Z,98655.89
2022-10-16T10:19:17.386Z,98654.72
2022-10-16T10:22:32.452Z,98656.80
2022-10-16T10:25:59.267Z,98662.97
2022-10-16T10:29:34.334Z,98655.91
2022-10-16T10:32:49.150Z,98655.65
2022-10-16T10:36:30.001Z,98658.50
2022-10-16T10:39:59.821Z,98658.16
2022-10-16T10:43:14.830Z,98649.42
2022-10-16T10:46:35.694Z,98658.30
2022-10-16T10:49:43.246Z,98649.09
2022-10-16T10:53:20.001Z,98652.45
2022-10-16T10:56:28.924Z,98661.70
2022-10-16T11:00:13.897Z,98663.04
2022-10-16T11:03:39.032Z,98660.84
2022-10-16T11:06:49.681Z,98656.77
2022-10-16T11:10:00.485Z,98656.07
2022-10-16T11:13:21.363Z,98656.16
2022-10-16T11:16:30.019Z,98653.65
2022-10-16T11:19:50.357Z,98656.31
2022-10-16T11:23:17.310Z,98657.92
2022-10-16T11:26:34.072Z,98657.94
2022-10-16T11:34:27.392Z,98651.83
2022-10-16T11:37:42.192Z,98653.79
2022-10-16T11:40:49.800Z,98651.66
2022-10-16T11:44:17.031Z,98658.13
2022-10-16T11:51:08.794Z,98654.39
2022-10-16T11:54:44.435Z,98651.48
2022-10-16T11:58:03.923Z,98655.30
2022-10-16T12:01:09.656Z,98666.60
2022-10-16T12:04:48.229Z,98664.98
2022-10-16T12:08:03.271Z,98670.78
2022-10-16T12:11:28.798Z,98677.75
2022-10-16T12:15:11.259Z,98679.04
2022-10-16T12:18:04.551Z,98683.30
2022-10-16T12:21:08.521Z,98684.31
2022-10-16T12:24:29.518Z,98680.95
2022-10-16T12:27:33.985Z,98679.59
2022-10-16T12:30:38.620Z,98674.40
2022-10-16T12:33:52.828Z,98677.65
2022-10-16T12:37:08.490Z,98677.42
2022-10-16T12:40:24.362Z,98675.48
2022-10-16T12:43:33.404Z,98673.62
2022-10-16T12:46:40.572Z,98673.65
2022-10-16T12:49:50.208Z,98671.10
2022-10-16T12:52:53.542Z,98675.54
2022-10-16T12:56:14.404Z,98674.46
2022-10-16T12:59:39.468Z,98676.03
2022-10-16T13:03:16.639Z,98675.21
2022-10-16T13:06:35.377Z,98676.23
2022-10-16T13:09:48.109Z,98686.85
2022-10-16T13:13:25.589Z,98690.03
2022-10-16T13:16:43.379Z,98686.75
2022-10-16T13:20:20.280Z,98689.77
2022-10-16T13:23:26.567Z,98692.52
2022-10-16T13:26:44.252Z,98699.05
2022-10-16T13:29:54.393Z,98700.39
2022-10-16T13:33:07.742Z,98699.80
2022-10-16T13:36:25.696Z,98688.27
2022-10-16T13:39:31.653Z,98685.44
2022-10-16T13:42:34.709Z,98691.33
2022-10-16T13:45:37.609Z,98694.79
2022-10-16T13:48:40.982Z,98691.52
2022-10-16T13:51:56.049Z,98680.92
2022-10-16T13:55:01.777Z,98675.12
2022-10-16T13:58:10.509Z,98678.31
2022-10-16T14:01:26.221Z,98683.64
2022-10-16T14:04:35.206Z,98692.94
2022-10-16T14:07:39.654Z,98698.11
2022-10-16T14:10:43.588Z,98708.83
2022-10-16T14:13:49.569Z,98724.39
2022-10-16T14:16:52.461Z,98722.45
2022-10-16T14:20:00.855Z,98722.42
2022-10-16T14:23:31.452Z,98725.84
2022-10-16T14:26:50.548Z,98725.90
2022-10-16T14:30:13.582Z,98723.11
2022-10-16T14:33:36.624Z,98724.69
2022-10-16T14:36:42.139Z,98720.02
2022-10-16T14:39:50.366Z,98716.88
2022-10-16T14:42:54.156Z,98717.06
2022-10-16T14:45:58.163Z,98721.02
2022-10-16T14:49:06.185Z,98729.99
2022-10-16T14:52:13.470Z,98736.35
2022-10-16T14:55:16.720Z,98737.64
2022-10-16T14:58:23.542Z,98731.02
2022-10-16T15:01:27.007Z,98725.65
2022-10-16T15:04:30.379Z,98721.28
2022-10-16T15:07:33.716Z,98732.73
2022-10-16T15:10:43.384Z,98739.34
2022-10-16T15:13:47.173Z,98736.20
2022-10-16T15:16:50.015Z,98732.34
2022-10-16T15:19:52.938Z,98728.59
2022-10-16T15:22:55.743Z,98737.84
2022-10-16T15:25:58.703Z,98738.86
2022-10-16T15:29:01.575Z,98742.73
2022-10-16T15:32:04.637Z,98752.95
2022-10-16T15:35:09.933Z,98747.60
2022-10-16T15:38:14.785Z,98754.09
2022-10-16T15:41:18.042Z,98758.44
2022-10-16T15:44:24.020Z,98762.86
2022-10-16T15:47:26.970Z,98761.40
2022-10-16T15:50:31.319Z,98764.23
2022-10-16T15:53:35.108Z,98763.82
2022-10-16T15:56:38.360Z,98766.82
2022-10-16T15:59:41.300Z,98768.11
2022-10-16T16:02:50.272Z,98769.11
2022-10-16T16:05:53.061Z,98764.09
2022-10-16T16:08:56.809Z,98763.02
2022-10-16T16:12:01.917Z,98767.25
2022-10-16T16:15:06.279Z,98778.89
2022-10-16T16:18:10.770Z,98779.88
2022-10-16T16:21:14.290Z,98790.60
2022-10-16T16:24:17.347Z,98794.91
2022-10-16T16:27:20.991Z,98793.52
2022-10-16T16:30:28.082Z,98795.88
2022-10-16T16:33:32.500Z,98802.87
2022-10-16T16:36:36.312Z,98807.21
2022-10-16T16:39:39.366Z,98810.46
2022-10-16T16:42:43.617Z,98815.97
2022-10-16T16:45:46.654Z,98821.86
2022-10-16T16:48:54.619Z,98826.50
2022-10-16T16:51:58.556Z,98831.04
2022-10-16T16:55:03.608Z,98837.88
2022-10-16T16:58:06.626Z,98840.43
2022-10-16T17:01:26.757Z,98846.72
2022-10-16T17:04:30.632Z,98853.23
2022-10-16T17:07:35.444Z,98856.90
2022-10-16T17:10:44.498Z,98860.66
2022-10-16T17:13:50.015Z,98862.89
2022-10-16T17:16:55.573Z,98862.16
2022-10-16T17:19:58.515Z,98866.77
2022-10-16T17:23:02.970Z,98872.18
2022-10-16T17:26:06.782Z,98873.22
2022-10-16T17:29:12.350Z,98873.39
2022-10-16T17:32:15.306Z,98879.42
2022-10-16T17:35:18.215Z,98885.30
2022-10-16T17:38:21.212Z,98889.36
2022-10-16T17:41:24.911Z,98895.63
2022-10-16T17:44:27.804Z,98897.55
2022-10-16T17:47:30.644Z,98899.23
2022-10-16T17:50:33.492Z,98894.23
2022-10-16T17:53:37.425Z,98893.77
2022-10-16T18:11:09.863Z,98911.01
2022-10-16T18:14:15.059Z,98920.64
2022-10-16T18:17:19.455Z,98920.58
2022-10-16T18:20:22.813Z,98928.59
2022-10-16T18:23:25.808Z,98929.23
2022-10-16T18:26:29.089Z,98929.57
2022-10-16T18:29:31.929Z,98934.48
2022-10-16T18:32:34.807Z,98936.00
2022-10-16T18:35:37.862Z,98942.12
2022-10-16T18:38:41.444Z,98938.95
2022-10-16T18:41:44.912Z,98939.14
2022-10-16T18:44:50.389Z,98942.23
2022-10-16T18:47:56.124Z,98945.65
2022-10-16T18:51:09.825Z,98945.98
2022-10-16T18:54:13.164Z,98952.97
2022-10-16T18:57:15.964Z,98955.08
2022-10-16T19:00:18.810Z,98960.52
2022-10-16T19:03:21.745Z,98968.47
2022-10-16T19:06:26.598Z,98972.20
2022-10-16T19:09:29.492Z,98974.27
2022-10-16T19:12:32.681Z,98980.55
2022-10-16T19:15:42.803Z,98982.38
2022-10-16T19:18:48.885Z,98987.94
2022-10-16T19:21:58.132Z,98996.98
2022-10-16T19:25:01.076Z,98998.57
2022-10-16T19:28:07.587Z,98996.85
2022-10-16T19:31:13.270Z,98996.47
2022-10-16T19:34:16.404Z,98998.28
2022-10-16T19:37:25.863Z,99005.84
2022-10-16T19:40:29.257Z,99012.02
2022-10-16T19:43:32.399Z,99016.06
2022-10-16T19:46:36.197Z,99016.70
2022-10-16T19:49:39.081Z,99015.29
2022-10-16T19:52:42.407Z,99018.70
2022-10-16T19:55:45.904Z,99017.52
2022-10-16T19:58:49.602Z,99019.58
2022-10-16T20:01:52.408Z,99022.60
2022-10-16T20:04:55.344Z,99023.01
2022-10-16T20:08:00.006Z,99024.03
2022-10-16T20:11:04.225Z,99031.33
2022-10-16T20:14:07.911Z,99029.59
2022-10-16T20:17:11.060Z,99034.04
2022-10-16T20:20:14.355Z,99034.98
2022-10-16T20:23:18.625Z,99036.27
2022-10-16T20:26:25.029Z,99040.01
2022-10-16T20:29:28.276Z,99042.08
2022-10-16T20:32:31.152Z,99044.53
2022-10-16T20:35:42.479Z,99048.19
2022-10-16T20:38:45.780Z,99049.30
2022-10-16T20:41:48.661Z,99054.16
2022-10-16T20:44:51.493Z,99056.30
2022-10-16T20:47:54.392Z,99061.92
2022-10-16T20:50:57.368Z,99068.69
2022-10-16T20:54:03.065Z,99074.38
2022-10-16T20:57:05.969Z,99077.55
2022-10-16T21:00:09.233Z,99080.18
2022-10-16T21:03:12.459Z,99088.51
2022-10-16T21:06:15.289Z,99087.64
2022-10-16T21:09:18.213Z,99093.17
2022-10-16T21:12:21.080Z,99091.28
2022-10-16T21:15:23.947Z,99088.99
2022-10-16T21:18:27.607Z,99090.44
2022-10-16T21:21:33.493Z,99093.61
2022-10-16T21:24:37.903Z,99096.64
2022-10-16T21:27:42.032Z,99098.64
2022-10-16T21:30:45.192Z,99104.13
2022-10-16T21:33:49.242Z,99108.58
2022-10-16T21:36:52.068Z,99109.80
2022-10-16T21:39:56.150Z,99115.51
2022-10-16T21:42:59.044Z,99119.89
2022-10-16T21:46:02.514Z,99118.64
2022-10-16T21:49:07.710Z,99124.52
2022-10-16T21:52:11.807Z,99127.54
2022-10-16T21:55:14.773Z,99126.73
2022-10-16T21:58:17.624Z,99131.56
2022-10-16T22:01:23.906Z,99135.38
2022-10-16T22:04:26.748Z,99135.07
2022-10-16T22:07:30.142Z,99128.89
2022-10-16T22:10:33.304Z,99125.25
2022-10-16T22:13:36.860Z,99126.52
2022-10-16T22:16:39.829Z,99130.81
2022-10-16T22:19:42.629Z,99130.10
2022-10-16T22:22:45.494Z,99136.05
2022-10-16T22:25:48.501Z,99132.00
2022-10-16T22:28:51.831Z,99133.98
2022-10-16T22:31:54.758Z,99129.64
2022-10-16T22:34:57.533Z,99134.63
2022-10-16T22:38:00.373Z,99136.36
2022-10-16T22:41:08.660Z,99139.70
2022-10-16T22:44:13.264Z,99140.11
2022-10-16T22:47:17.314Z,99145.16
2022-10-16T22:50:20.135Z,99140.65
2022-10-16T22:53:23.001Z,99142.56
2022-10-16T22:56:26.427Z,99145.33
2022-10-16T22:59:29.259Z,99143.91
2022-10-16T23:02:32.168Z,99144.24
2022-10-16T23:05:38.904Z,99145.11
2022-10-16T23:08:42.236Z,99148.20
2022-10-16T23:11:45.307Z,99150.73
2022-10-16T23:14:48.326Z,99152.40
2022-10-16T23:17:51.269Z,99151.30
2022-10-16T23:20:54.089Z,99150.42
2022-10-16T23:23:56.982Z,99153.29
2022-10-16T23:26:59.812Z,99154.55
2022-10-16T23:30:02.676Z,99156.79
2022-10-16T23:33:05.536Z,99156.55
2022-10-16T23:36:11.398Z,99159.48
2022-10-16T23:39:14.319Z,99161.95
2022-10-16T23:42:17.681Z,99162.99
2022-10-16T23:45:20.469Z,99166.09
2022-10-16T23:48:23.486Z,99164.27
2022-10-16T23:51:26.440Z,99166.02
2022-10-16T23:54:29.463Z,99168.24
2022-10-16T23:57:32.293Z,99166.98
